sensor_id;sensor_type;location;lat;lon;timestamp;P1;durP1;ratioP1;P2;durP2;ratioP2
41815;SDS011;27814;53.452;-6.180;2022-08-11T00:02:27;3.65;;;1.92;;
41815;SDS011;27814;53.452;-6.180;2022-08-11T00:05:01;3.17;;;1.63;;
41815;SDS011;27814;53.452;-6.180;2022-08-11T00:07:32;3.20;;;1.60;;
41815;SDS011;27814;53.452;-6.180;2022-08-11T00:10:08;3.70;;;1.50;;
41815;SDS011;27814;53.452;-6.180;2022-08-11T00:12:39;3.70;;;1.83;;
41815;SDS011;27814;53.452;-6.180;2022-08-11T00:15:09;5.25;;;1.88;;
41815;SDS011;27814;53.452;-6.180;2022-08-11T00:17:40;4.23;;;2.03;;
41815;SDS011;27814;53.452;-6.180;2022-08-11T00:20:11;3.25;;;1.70;;
41815;SDS011;27814;53.452;-6.180;2022-08-11T00:22:43;4.00;;;1.88;;
41815;SDS011;27814;53.452;-6.180;2022-08-11T00:25:15;4.40;;;1.70;;
41815;SDS011;27814;53.452;-6.180;2022-08-11T00:27:46;3.73;;;1.93;;
41815;SDS011;27814;53.452;-6.180;2022-08-11T00:30:15;3.55;;;1.77;;
41815;SDS011;27814;53.452;-6.180;2022-08-11T00:32:51;3.50;;;1.77;;
41815;SDS011;27814;53.452;-6.180;2022-08-11T00:35:23;4.77;;;2.03;;
41815;SDS011;27814;53.452;-6.180;2022-08-11T00:38:14;3.03;;;1.92;;
41815;SDS011;27814;53.452;-6.180;2022-08-11T00:40:44;4.82;;;1.98;;
41815;SDS011;27814;53.452;-6.180;2022-08-11T00:43:22;6.60;;;1.88;;
41815;SDS011;27814;53.452;-6.180;2022-08-11T00:46:18;7.65;;;2.60;;
41815;SDS011;27814;53.452;-6.180;2022-08-11T00:49:04;5.10;;;3.08;;
41815;SDS011;27814;53.452;-6.180;2022-08-11T00:51:46;7.07;;;3.00;;
41815;SDS011;27814;53.452;-6.180;2022-08-11T00:54:40;5.65;;;2.50;;
41815;SDS011;27814;53.452;-6.180;2022-08-11T00:57:41;5.15;;;2.92;;
41815;SDS011;27814;53.452;-6.180;2022-08-11T01:00:41;9.85;;;3.00;;
41815;SDS011;27814;53.452;-6.180;2022-08-11T01:03:26;4.57;;;2.42;;
41815;SDS011;27814;53.452;-6.180;2022-08-11T01:06:26;3.13;;;1.88;;
41815;SDS011;27814;53.452;-6.180;2022-08-11T01:09:17;3.55;;;1.90;;
41815;SDS011;27814;53.452;-6.180;2022-08-11T01:12:14;3.63;;;1.67;;
41815;SDS011;27814;53.452;-6.180;2022-08-11T01:18:09;3.78;;;1.40;;
41815;SDS011;27814;53.452;-6.180;2022-08-11T01:21:01;1.95;;;1.30;;
41815;SDS011;27814;53.452;-6.180;2022-08-11T01:24:07;2.08;;;1.33;;
41815;SDS011;27814;53.452;-6.180;2022-08-11T01:27:03;3.38;;;1.70;;
41815;SDS011;27814;53.452;-6.180;2022-08-11T01:36:18;2.57;;;1.93;;
41815;SDS011;27814;53.452;-6.180;2022-08-11T01:46:03;2.72;;;1.77;;
41815;SDS011;27814;53.452;-6.180;2022-08-11T01:48:38;4.30;;;1.90;;
41815;SDS011;27814;53.452;-6.180;2022-08-11T01:51:16;3.65;;;1.80;;
41815;SDS011;27814;53.452;-6.180;2022-08-11T01:53:53;3.25;;;1.80;;
41815;SDS011;27814;53.452;-6.180;2022-08-11T01:56:35;3.50;;;1.77;;
41815;SDS011;27814;53.452;-6.180;2022-08-11T01:59:25;4.28;;;1.85;;
41815;SDS011;27814;53.452;-6.180;2022-08-11T02:02:15;2.57;;;1.50;;
41815;SDS011;27814;53.452;-6.180;2022-08-11T02:05:17;5.63;;;1.57;;
41815;SDS011;27814;53.452;-6.180;2022-08-11T02:07:58;4.35;;;2.13;;
41815;SDS011;27814;53.452;-6.180;2022-08-11T02:10:38;4.72;;;1.58;;
41815;SDS011;27814;53.452;-6.180;2022-08-11T02:13:35;5.00;;;1.58;;
41815;SDS011;27814;53.452;-6.180;2022-08-11T02:16:14;3.53;;;1.77;;
41815;SDS011;27814;53.452;-6.180;2022-08-11T02:18:49;4.22;;;1.90;;
41815;SDS011;27814;53.452;-6.180;2022-08-11T02:21:41;3.72;;;1.50;;
41815;SDS011;27814;53.452;-6.180;2022-08-11T02:24:34;4.72;;;1.85;;
41815;SDS011;27814;53.452;-6.180;2022-08-11T02:27:15;5.22;;;1.95;;
41815;SDS011;27814;53.452;-6.180;2022-08-11T02:29:50;2.95;;;1.80;;
41815;SDS011;27814;53.452;-6.180;2022-08-11T02:32:31;4.20;;;1.90;;
41815;SDS011;27814;53.452;-6.180;2022-08-11T02:35:22;6.30;;;2.30;;
41815;SDS011;27814;53.452;-6.180;2022-08-11T02:37:59;3.70;;;1.92;;
41815;SDS011;27814;53.452;-6.180;2022-08-11T02:40:41;3.90;;;2.00;;
41815;SDS011;27814;53.452;-6.180;2022-08-11T02:43:24;3.03;;;1.80;;
41815;SDS011;27814;53.452;-6.180;2022-08-11T02:46:05;4.17;;;1.70;;
41815;SDS011;27814;53.452;-6.180;2022-08-11T02:48:55;5.38;;;1.70;;
41815;SDS011;27814;53.452;-6.180;2022-08-11T02:51:48;4.97;;;1.92;;
41815;SDS011;27814;53.452;-6.180;2022-08-11T02:54:31;2.92;;;1.90;;
41815;SDS011;27814;53.452;-6.180;2022-08-11T02:57:09;5.30;;;2.45;;
41815;SDS011;27814;53.452;-6.180;2022-08-11T02:59:48;4.57;;;1.88;;
41815;SDS011;27814;53.452;-6.180;2022-08-11T03:02:24;4.73;;;2.20;;
41815;SDS011;27814;53.452;-6.180;2022-08-11T03:05:11;4.00;;;2.00;;
41815;SDS011;27814;53.452;-6.180;2022-08-11T03:07:53;4.15;;;2.10;;
41815;SDS011;27814;53.452;-6.180;2022-08-11T03:10:45;3.95;;;1.92;;
41815;SDS011;27814;53.452;-6.180;2022-08-11T03:13:38;3.97;;;2.10;;
41815;SDS011;27814;53.452;-6.180;2022-08-11T03:16:31;6.25;;;2.25;;
41815;SDS011;27814;53.452;-6.180;2022-08-11T03:19:13;3.53;;;2.13;;
41815;SDS011;27814;53.452;-6.180;2022-08-11T03:21:45;3.35;;;2.00;;
41815;SDS011;27814;53.452;-6.180;2022-08-11T03:24:30;3.83;;;2.20;;
41815;SDS011;27814;53.452;-6.180;2022-08-11T03:27:21;3.50;;;1.73;;
41815;SDS011;27814;53.452;-6.180;2022-08-11T03:30:09;4.30;;;2.23;;
41815;SDS011;27814;53.452;-6.180;2022-08-11T03:32:45;2.92;;;1.80;;
41815;SDS011;27814;53.452;-6.180;2022-08-11T03:35:35;5.07;;;1.90;;
41815;SDS011;27814;53.452;-6.180;2022-08-11T03:38:09;5.70;;;2.00;;
41815;SDS011;27814;53.452;-6.180;2022-08-11T03:40:51;3.77;;;1.70;;
41815;SDS011;27814;53.452;-6.180;2022-08-11T03:44:27;3.50;;;2.00;;
41815;SDS011;27814;53.452;-6.180;2022-08-11T03:50:02;3.60;;;1.85;;
41815;SDS011;27814;53.452;-6.180;2022-08-11T03:52:47;4.20;;;2.00;;
41815;SDS011;27814;53.452;-6.180;2022-08-11T03:55:25;4.03;;;2.20;;
41815;SDS011;27814;53.452;-6.180;2022-08-11T03:58:15;3.58;;;1.90;;
41815;SDS011;27814;53.452;-6.180;2022-08-11T04:04:27;3.50;;;1.90;;
41815;SDS011;27814;53.452;-6.180;2022-08-11T04:11:17;3.53;;;1.90;;
41815;SDS011;27814;53.452;-6.180;2022-08-11T04:20:50;4.85;;;1.85;;
41815;SDS011;27814;53.452;-6.180;2022-08-11T04:23:38;4.78;;;2.38;;
41815;SDS011;27814;53.452;-6.180;2022-08-11T04:30:04;3.45;;;2.08;;
41815;SDS011;27814;53.452;-6.180;2022-08-11T04:32:52;3.95;;;2.45;;
41815;SDS011;27814;53.452;-6.180;2022-08-11T04:35:41;5.00;;;3.03;;
41815;SDS011;27814;53.452;-6.180;2022-08-11T04:38:33;4.40;;;2.55;;
41815;SDS011;27814;53.452;-6.180;2022-08-11T04:44:59;4.90;;;2.67;;
41815;SDS011;27814;53.452;-6.180;2022-08-11T04:47:50;4.03;;;2.60;;
41815;SDS011;27814;53.452;-6.180;2022-08-11T04:50:55;3.90;;;2.40;;
41815;SDS011;27814;53.452;-6.180;2022-08-11T04:53:55;4.45;;;2.53;;
41815;SDS011;27814;53.452;-6.180;2022-08-11T04:56:53;4.80;;;2.60;;
41815;SDS011;27814;53.452;-6.180;2022-08-11T05:03:02;6.82;;;2.88;;
41815;SDS011;27814;53.452;-6.180;2022-08-11T05:06:00;5.20;;;3.20;;
41815;SDS011;27814;53.452;-6.180;2022-08-11T05:09:14;5.68;;;3.15;;
41815;SDS011;27814;53.452;-6.180;2022-08-11T05:12:01;6.00;;;3.20;;
41815;SDS011;27814;53.452;-6.180;2022-08-11T05:14:38;4.13;;;2.97;;
41815;SDS011;27814;53.452;-6.180;2022-08-11T05:17:34;6.10;;;3.00;;
41815;SDS011;27814;53.452;-6.180;2022-08-11T05:20:24;4.55;;;3.13;;
41815;SDS011;27814;53.452;-6.180;2022-08-11T05:23:10;5.30;;;2.80;;
41815;SDS011;27814;53.452;-6.180;2022-08-11T05:25:59;4.70;;;2.50;;
41815;SDS011;27814;53.452;-6.180;2022-08-11T05:32:11;4.78;;;2.45;;
41815;SDS011;27814;53.452;-6.180;2022-08-11T05:35:01;4.78;;;2.78;;
41815;SDS011;27814;53.452;-6.180;2022-08-11T05:37:33;4.28;;;2.53;;
41815;SDS011;27814;53.452;-6.180;2022-08-11T05:40:08;4.30;;;2.60;;
41815;SDS011;27814;53.452;-6.180;2022-08-11T05:42:59;5.32;;;2.40;;
41815;SDS011;27814;53.452;-6.180;2022-08-11T05:45:55;5.20;;;2.40;;
41815;SDS011;27814;53.452;-6.180;2022-08-11T05:48:42;3.13;;;2.20;;
41815;SDS011;27814;53.452;-6.180;2022-08-11T05:51:33;3.75;;;1.90;;
41815;SDS011;27814;53.452;-6.180;2022-08-11T05:54:21;4.07;;;2.00;;
41815;SDS011;27814;53.452;-6.180;2022-08-11T05:57:17;4.77;;;2.30;;
41815;SDS011;27814;53.452;-6.180;2022-08-11T06:00:10;3.85;;;2.50;;
41815;SDS011;27814;53.452;-6.180;2022-08-11T06:02:41;4.22;;;2.67;;
41815;SDS011;27814;53.452;-6.180;2022-08-11T06:05:10;6.72;;;2.50;;
41815;SDS011;27814;53.452;-6.180;2022-08-11T06:07:39;4.75;;;2.65;;
41815;SDS011;27814;53.452;-6.180;2022-08-11T06:10:23;5.05;;;2.50;;
41815;SDS011;27814;53.452;-6.180;2022-08-11T06:12:53;5.22;;;2.60;;
41815;SDS011;27814;53.452;-6.180;2022-08-11T06:15:25;6.20;;;2.75;;
41815;SDS011;27814;53.452;-6.180;2022-08-11T06:17:54;5.93;;;2.72;;
41815;SDS011;27814;53.452;-6.180;2022-08-11T06:20:25;10.02;;;3.08;;
41815;SDS011;27814;53.452;-6.180;2022-08-11T06:23:00;9.00;;;2.83;;
41815;SDS011;27814;53.452;-6.180;2022-08-11T06:25:31;6.22;;;3.10;;
41815;SDS011;27814;53.452;-6.180;2022-08-11T06:28:01;7.70;;;3.00;;
41815;SDS011;27814;53.452;-6.180;2022-08-11T06:30:35;9.90;;;3.40;;
41815;SDS011;27814;53.452;-6.180;2022-08-11T06:33:09;9.10;;;3.22;;
41815;SDS011;27814;53.452;-6.180;2022-08-11T06:35:44;7.90;;;3.63;;
41815;SDS011;27814;53.452;-6.180;2022-08-11T06:38:22;10.25;;;3.08;;
41815;SDS011;27814;53.452;-6.180;2022-08-11T06:41:03;7.20;;;3.35;;
41815;SDS011;27814;53.452;-6.180;2022-08-11T06:44:14;11.88;;;3.05;;
41815;SDS011;27814;53.452;-6.180;2022-08-11T06:46:50;11.00;;;3.20;;
41815;SDS011;27814;53.452;-6.180;2022-08-11T06:49:21;11.27;;;3.20;;
41815;SDS011;27814;53.452;-6.180;2022-08-11T06:52:18;6.18;;;3.05;;
41815;SDS011;27814;53.452;-6.180;2022-08-11T06:55:04;10.57;;;3.33;;
41815;SDS011;27814;53.452;-6.180;2022-08-11T06:57:55;7.35;;;2.97;;
41815;SDS011;27814;53.452;-6.180;2022-08-11T07:00:42;9.48;;;2.97;;
41815;SDS011;27814;53.452;-6.180;2022-08-11T07:03:16;7.35;;;3.15;;
41815;SDS011;27814;53.452;-6.180;2022-08-11T07:05:46;11.27;;;2.88;;
41815;SDS011;27814;53.452;-6.180;2022-08-11T07:08:26;10.02;;;2.67;;
41815;SDS011;27814;53.452;-6.180;2022-08-11T07:11:34;8.68;;;2.58;;
41815;SDS011;27814;53.452;-6.180;2022-08-11T07:14:50;5.63;;;2.55;;
41815;SDS011;27814;53.452;-6.180;2022-08-11T07:17:40;4.90;;;2.50;;
41815;SDS011;27814;53.452;-6.180;2022-08-11T07:20:22;6.30;;;2.50;;
41815;SDS011;27814;53.452;-6.180;2022-08-11T07:23:08;6.80;;;2.08;;
41815;SDS011;27814;53.452;-6.180;2022-08-11T07:25:55;9.00;;;2.58;;
41815;SDS011;27814;53.452;-6.180;2022-08-11T07:28:44;8.60;;;2.30;;
41815;SDS011;27814;53.452;-6.180;2022-08-11T07:31:34;5.13;;;2.25;;
41815;SDS011;27814;53.452;-6.180;2022-08-11T07:34:11;6.60;;;2.58;;
41815;SDS011;27814;53.452;-6.180;2022-08-11T07:36:47;5.93;;;2.90;;
41815;SDS011;27814;53.452;-6.180;2022-08-11T07:39:19;7.55;;;2.88;;
41815;SDS011;27814;53.452;-6.180;2022-08-11T07:41:52;5.85;;;2.85;;
41815;SDS011;27814;53.452;-6.180;2022-08-11T07:44:23;8.63;;;2.72;;
41815;SDS011;27814;53.452;-6.180;2022-08-11T07:47:00;8.85;;;2.60;;
41815;SDS011;27814;53.452;-6.180;2022-08-11T07:49:45;5.87;;;2.83;;
41815;SDS011;27814;53.452;-6.180;2022-08-11T07:52:36;6.95;;;2.67;;
41815;SDS011;27814;53.452;-6.180;2022-08-11T07:55:07;5.80;;;2.90;;
41815;SDS011;27814;53.452;-6.180;2022-08-11T07:57:40;4.60;;;2.40;;
41815;SDS011;27814;53.452;-6.180;2022-08-11T08:00:46;5.40;;;2.63;;
41815;SDS011;27814;53.452;-6.180;2022-08-11T08:03:36;6.20;;;2.67;;
41815;SDS011;27814;53.452;-6.180;2022-08-11T08:06:23;4.67;;;2.93;;
41815;SDS011;27814;53.452;-6.180;2022-08-11T08:09:13;4.30;;;2.67;;
41815;SDS011;27814;53.452;-6.180;2022-08-11T08:12:04;4.97;;;2.47;;
41815;SDS011;27814;53.452;-6.180;2022-08-11T08:14:51;4.30;;;2.80;;
41815;SDS011;27814;53.452;-6.180;2022-08-11T08:17:39;3.67;;;2.40;;
41815;SDS011;27814;53.452;-6.180;2022-08-11T08:20:37;4.47;;;2.63;;
41815;SDS011;27814;53.452;-6.180;2022-08-11T08:23:07;5.72;;;2.70;;
41815;SDS011;27814;53.452;-6.180;2022-08-11T08:25:42;5.00;;;2.83;;
41815;SDS011;27814;53.452;-6.180;2022-08-11T08:28:14;3.88;;;2.50;;
41815;SDS011;27814;53.452;-6.180;2022-08-11T08:30:44;5.47;;;2.72;;
41815;SDS011;27814;53.452;-6.180;2022-08-11T08:33:18;4.85;;;2.58;;
41815;SDS011;27814;53.452;-6.180;2022-08-11T08:35:49;4.22;;;2.58;;
41815;SDS011;27814;53.452;-6.180;2022-08-11T08:38:41;5.53;;;2.50;;
41815;SDS011;27814;53.452;-6.180;2022-08-11T08:41:18;4.43;;;2.70;;
41815;SDS011;27814;53.452;-6.180;2022-08-11T08:43:50;7.60;;;2.55;;
41815;SDS011;27814;53.452;-6.180;2022-08-11T08:46:41;6.38;;;2.20;;
41815;SDS011;27814;53.452;-6.180;2022-08-11T08:49:12;6.38;;;2.20;;
41815;SDS011;27814;53.452;-6.180;2022-08-11T08:51:43;4.93;;;2.38;;
41815;SDS011;27814;53.452;-6.180;2022-08-11T08:54:36;4.22;;;2.40;;
41815;SDS011;27814;53.452;-6.180;2022-08-11T08:57:08;4.43;;;2.20;;
41815;SDS011;27814;53.452;-6.180;2022-08-11T08:59:38;3.03;;;1.97;;
41815;SDS011;27814;53.452;-6.180;2022-08-11T09:02:15;5.93;;;2.40;;
41815;SDS011;27814;53.452;-6.180;2022-08-11T09:05:00;4.95;;;1.92;;
41815;SDS011;27814;53.452;-6.180;2022-08-11T09:07:30;3.83;;;2.00;;
41815;SDS011;27814;53.452;-6.180;2022-08-11T09:10:06;5.88;;;2.30;;
41815;SDS011;27814;53.452;-6.180;2022-08-11T09:12:39;3.10;;;2.20;;
41815;SDS011;27814;53.452;-6.180;2022-08-11T09:15:09;3.78;;;2.17;;
41815;SDS011;27814;53.452;-6.180;2022-08-11T09:17:45;6.38;;;2.40;;
41815;SDS011;27814;53.452;-6.180;2022-08-11T09:20:17;5.25;;;2.28;;
41815;SDS011;27814;53.452;-6.180;2022-08-11T09:22:47;3.70;;;1.83;;
41815;SDS011;27814;53.452;-6.180;2022-08-11T09:25:55;5.00;;;2.23;;
41815;SDS011;27814;53.452;-6.180;2022-08-11T09:28:47;4.75;;;2.20;;
41815;SDS011;27814;53.452;-6.180;2022-08-11T09:31:16;5.63;;;2.60;;
41815;SDS011;27814;53.452;-6.180;2022-08-11T09:33:47;3.53;;;1.90;;
41815;SDS011;27814;53.452;-6.180;2022-08-11T09:36:20;4.30;;;2.00;;
41815;SDS011;27814;53.452;-6.180;2022-08-11T09:39:06;5.05;;;2.17;;
41815;SDS011;27814;53.452;-6.180;2022-08-11T09:41:57;4.80;;;1.83;;
41815;SDS011;27814;53.452;-6.180;2022-08-11T09:44:31;3.97;;;2.03;;
41815;SDS011;27814;53.452;-6.180;2022-08-11T09:47:18;3.38;;;1.85;;
41815;SDS011;27814;53.452;-6.180;2022-08-11T09:49:54;3.75;;;2.20;;
41815;SDS011;27814;53.452;-6.180;2022-08-11T09:52:27;5.32;;;2.55;;
41815;SDS011;27814;53.452;-6.180;2022-08-11T09:54:58;2.90;;;2.15;;
41815;SDS011;27814;53.452;-6.180;2022-08-11T09:57:30;4.20;;;1.90;;
41815;SDS011;27814;53.452;-6.180;2022-08-11T10:00:17;5.90;;;2.40;;
41815;SDS011;27814;53.452;-6.180;2022-08-11T10:02:49;4.07;;;1.83;;
41815;SDS011;27814;53.452;-6.180;2022-08-11T10:05:20;5.45;;;2.40;;
41815;SDS011;27814;53.452;-6.180;2022-08-11T10:08:06;5.00;;;2.10;;
41815;SDS011;27814;53.452;-6.180;2022-08-11T10:10:38;4.57;;;2.15;;
41815;SDS011;27814;53.452;-6.180;2022-08-11T10:13:08;3.63;;;2.20;;
41815;SDS011;27814;53.452;-6.180;2022-08-11T10:16:02;4.28;;;2.28;;
41815;SDS011;27814;53.452;-6.180;2022-08-11T10:18:42;3.28;;;2.20;;
41815;SDS011;27814;53.452;-6.180;2022-08-11T10:21:23;3.40;;;2.03;;
41815;SDS011;27814;53.452;-6.180;2022-08-11T10:23:54;4.68;;;2.50;;
41815;SDS011;27814;53.452;-6.180;2022-08-11T10:26:43;5.20;;;2.33;;
41815;SDS011;27814;53.452;-6.180;2022-08-11T10:29:26;4.18;;;2.13;;
41815;SDS011;27814;53.452;-6.180;2022-08-11T10:32:18;4.67;;;1.90;;
41815;SDS011;27814;53.452;-6.180;2022-08-11T10:35:24;2.80;;;1.80;;
41815;SDS011;27814;53.452;-6.180;2022-08-11T10:37:53;4.43;;;1.90;;
41815;SDS011;27814;53.452;-6.180;2022-08-11T10:40:44;4.13;;;1.80;;
41815;SDS011;27814;53.452;-6.180;2022-08-11T10:43:35;5.75;;;1.85;;
41815;SDS011;27814;53.452;-6.180;2022-08-11T10:46:25;3.80;;;1.80;;
41815;SDS011;27814;53.452;-6.180;2022-08-11T10:49:13;3.33;;;1.70;;
41815;SDS011;27814;53.452;-6.180;2022-08-11T10:51:42;3.67;;;1.50;;
41815;SDS011;27814;53.452;-6.180;2022-08-11T10:54:30;2.60;;;1.45;;
41815;SDS011;27814;53.452;-6.180;2022-08-11T10:57:17;2.47;;;1.30;;
41815;SDS011;27814;53.452;-6.180;2022-08-11T11:00:04;2.63;;;1.33;;
41815;SDS011;27814;53.452;-6.180;2022-08-11T11:02:33;3.50;;;1.20;;
41815;SDS011;27814;53.452;-6.180;2022-08-11T11:05:06;2.83;;;1.15;;
41815;SDS011;27814;53.452;-6.180;2022-08-11T11:07:46;2.72;;;1.25;;
41815;SDS011;27814;53.452;-6.180;2022-08-11T11:10:21;1.80;;;1.00;;
41815;SDS011;27814;53.452;-6.180;2022-08-11T11:12:52;1.47;;;0.80;;
41815;SDS011;27814;53.452;-6.180;2022-08-11T11:15:40;3.78;;;1.08;;
41815;SDS011;27814;53.452;-6.180;2022-08-11T11:18:30;3.42;;;1.00;;
41815;SDS011;27814;53.452;-6.180;2022-08-11T11:21:04;2.85;;;1.15;;
41815;SDS011;27814;53.452;-6.180;2022-08-11T11:23:37;2.75;;;1.20;;
41815;SDS011;27814;53.452;-6.180;2022-08-11T11:26:26;3.35;;;1.00;;
41815;SDS011;27814;53.452;-6.180;2022-08-11T11:29:18;2.38;;;1.23;;
41815;SDS011;27814;53.452;-6.180;2022-08-11T11:32:05;1.77;;;0.97;;
41815;SDS011;27814;53.452;-6.180;2022-08-11T11:37:50;3.65;;;1.13;;
41815;SDS011;27814;53.452;-6.180;2022-08-11T11:40:30;1.65;;;0.98;;
41815;SDS011;27814;53.452;-6.180;2022-08-11T11:43:00;3.20;;;0.87;;
41815;SDS011;27814;53.452;-6.180;2022-08-11T11:45:29;1.60;;;0.82;;
41815;SDS011;27814;53.452;-6.180;2022-08-11T11:47:58;1.63;;;0.70;;
41815;SDS011;27814;53.452;-6.180;2022-08-11T11:50:29;3.65;;;0.95;;
41815;SDS011;27814;53.452;-6.180;2022-08-11T11:53:02;1.57;;;0.67;;
41815;SDS011;27814;53.452;-6.180;2022-08-11T11:55:32;1.20;;;0.70;;
41815;SDS011;27814;53.452;-6.180;2022-08-11T11:58:02;1.30;;;1.00;;
41815;SDS011;27814;53.452;-6.180;2022-08-11T12:00:49;1.30;;;0.63;;
41815;SDS011;27814;53.452;-6.180;2022-08-11T12:03:36;1.33;;;0.80;;
41815;SDS011;27814;53.452;-6.180;2022-08-11T12:06:06;1.17;;;0.70;;
41815;SDS011;27814;53.452;-6.180;2022-08-11T12:08:38;3.17;;;0.90;;
41815;SDS011;27814;53.452;-6.180;2022-08-11T12:11:09;1.65;;;0.80;;
41815;SDS011;27814;53.452;-6.180;2022-08-11T12:13:56;3.75;;;0.90;;
41815;SDS011;27814;53.452;-6.180;2022-08-11T12:16:27;3.05;;;0.90;;
41815;SDS011;27814;53.452;-6.180;2022-08-11T12:19:02;1.90;;;0.80;;
41815;SDS011;27814;53.452;-6.180;2022-08-11T12:21:33;1.10;;;0.60;;
41815;SDS011;27814;53.452;-6.180;2022-08-11T12:24:04;1.45;;;0.70;;
41815;SDS011;27814;53.452;-6.180;2022-08-11T12:26:55;1.90;;;0.60;;
41815;SDS011;27814;53.452;-6.180;2022-08-11T12:29:44;1.70;;;0.60;;
41815;SDS011;27814;53.452;-6.180;2022-08-11T12:32:21;0.95;;;0.40;;
41815;SDS011;27814;53.452;-6.180;2022-08-11T12:34:51;2.42;;;0.70;;
41815;SDS011;27814;53.452;-6.180;2022-08-11T12:37:24;0.88;;;0.45;;
41815;SDS011;27814;53.452;-6.180;2022-08-11T12:39:58;1.50;;;0.70;;
41815;SDS011;27814;53.452;-6.180;2022-08-11T12:43:09;1.02;;;0.65;;
41815;SDS011;27814;53.452;-6.180;2022-08-11T12:46:05;1.75;;;0.80;;
41815;SDS011;27814;53.452;-6.180;2022-08-11T12:48:36;0.90;;;0.50;;
41815;SDS011;27814;53.452;-6.180;2022-08-11T12:51:30;1.38;;;0.60;;
41815;SDS011;27814;53.452;-6.180;2022-08-11T12:54:41;2.20;;;0.80;;
41815;SDS011;27814;53.452;-6.180;2022-08-11T12:57:27;1.63;;;0.73;;
41815;SDS011;27814;53.452;-6.180;2022-08-11T13:00:16;1.05;;;0.70;;
41815;SDS011;27814;53.452;-6.180;2022-08-11T13:03:04;0.82;;;0.60;;
41815;SDS011;27814;53.452;-6.180;2022-08-11T13:05:52;3.65;;;0.70;;
41815;SDS011;27814;53.452;-6.180;2022-08-11T13:08:23;3.30;;;0.80;;
41815;SDS011;27814;53.452;-6.180;2022-08-11T13:10:55;1.05;;;0.63;;
41815;SDS011;27814;53.452;-6.180;2022-08-11T13:13:45;2.80;;;0.80;;
41815;SDS011;27814;53.452;-6.180;2022-08-11T13:16:23;4.53;;;0.63;;
41815;SDS011;27814;53.452;-6.180;2022-08-11T13:18:54;1.67;;;0.70;;
41815;SDS011;27814;53.452;-6.180;2022-08-11T13:21:24;1.20;;;0.57;;
41815;SDS011;27814;53.452;-6.180;2022-08-11T13:23:54;1.42;;;0.70;;
41815;SDS011;27814;53.452;-6.180;2022-08-11T13:26:29;1.33;;;0.67;;
41815;SDS011;27814;53.452;-6.180;2022-08-11T13:29:15;1.33;;;0.63;;
41815;SDS011;27814;53.452;-6.180;2022-08-11T13:31:46;0.82;;;0.63;;
41815;SDS011;27814;53.452;-6.180;2022-08-11T13:34:15;1.80;;;0.80;;
41815;SDS011;27814;53.452;-6.180;2022-08-11T13:36:45;0.90;;;0.50;;
41815;SDS011;27814;53.452;-6.180;2022-08-11T13:39:18;1.02;;;0.57;;
41815;SDS011;27814;53.452;-6.180;2022-08-11T13:41:50;2.25;;;0.60;;
41815;SDS011;27814;53.452;-6.180;2022-08-11T13:44:21;1.23;;;0.70;;
41815;SDS011;27814;53.452;-6.180;2022-08-11T13:46:55;1.15;;;0.70;;
41815;SDS011;27814;53.452;-6.180;2022-08-11T13:49:27;0.90;;;0.50;;
41815;SDS011;27814;53.452;-6.180;2022-08-11T13:51:56;0.83;;;0.50;;
41815;SDS011;27814;53.452;-6.180;2022-08-11T13:54:26;0.67;;;0.53;;
41815;SDS011;27814;53.452;-6.180;2022-08-11T13:56:59;1.35;;;0.70;;
41815;SDS011;27814;53.452;-6.180;2022-08-11T13:59:36;1.80;;;0.63;;
41815;SDS011;27814;53.452;-6.180;2022-08-11T14:02:18;2.55;;;0.65;;
41815;SDS011;27814;53.452;-6.180;2022-08-11T14:05:00;1.48;;;0.80;;
41815;SDS011;27814;53.452;-6.180;2022-08-11T14:07:33;2.25;;;0.73;;
41815;SDS011;27814;53.452;-6.180;2022-08-11T14:10:05;1.23;;;0.65;;
41815;SDS011;27814;53.452;-6.180;2022-08-11T14:12:35;1.00;;;0.60;;
41815;SDS011;27814;53.452;-6.180;2022-08-11T14:15:34;1.52;;;0.60;;
41815;SDS011;27814;53.452;-6.180;2022-08-11T14:18:07;2.07;;;0.83;;
41815;SDS011;27814;53.452;-6.180;2022-08-11T14:20:41;2.78;;;0.65;;
41815;SDS011;27814;53.452;-6.180;2022-08-11T14:23:30;1.20;;;0.50;;
41815;SDS011;27814;53.452;-6.180;2022-08-11T14:26:11;0.82;;;0.50;;
41815;SDS011;27814;53.452;-6.180;2022-08-11T14:28:53;2.33;;;0.70;;
41815;SDS011;27814;53.452;-6.180;2022-08-11T14:31:26;1.55;;;0.52;;
41815;SDS011;27814;53.452;-6.180;2022-08-11T14:33:58;1.40;;;0.60;;
41815;SDS011;27814;53.452;-6.180;2022-08-11T14:36:30;1.87;;;0.70;;
41815;SDS011;27814;53.452;-6.180;2022-08-11T14:39:02;1.40;;;0.50;;
41815;SDS011;27814;53.452;-6.180;2022-08-11T14:41:34;1.83;;;0.50;;
41815;SDS011;27814;53.452;-6.180;2022-08-11T14:44:38;2.25;;;0.60;;
41815;SDS011;27814;53.452;-6.180;2022-08-11T14:47:29;1.50;;;0.60;;
41815;SDS011;27814;53.452;-6.180;2022-08-11T14:50:00;1.88;;;0.70;;
41815;SDS011;27814;53.452;-6.180;2022-08-11T14:52:37;0.90;;;0.60;;
41815;SDS011;27814;53.452;-6.180;2022-08-11T14:55:15;2.17;;;0.60;;
41815;SDS011;27814;53.452;-6.180;2022-08-11T14:58:02;1.20;;;0.60;;
41815;SDS011;27814;53.452;-6.180;2022-08-11T15:00:32;1.37;;;0.63;;
41815;SDS011;27814;53.452;-6.180;2022-08-11T15:03:04;3.35;;;0.70;;
41815;SDS011;27814;53.452;-6.180;2022-08-11T15:05:46;0.90;;;0.63;;
41815;SDS011;27814;53.452;-6.180;2022-08-11T15:08:24;1.88;;;0.70;;
41815;SDS011;27814;53.452;-6.180;2022-08-11T15:11:12;1.27;;;0.60;;
41815;SDS011;27814;53.452;-6.180;2022-08-11T15:14:00;1.10;;;0.63;;
41815;SDS011;27814;53.452;-6.180;2022-08-11T15:16:30;1.65;;;1.08;;
41815;SDS011;27814;53.452;-6.180;2022-08-11T15:19:18;2.05;;;0.85;;
41815;SDS011;27814;53.452;-6.180;2022-08-11T15:21:47;1.30;;;0.60;;
41815;SDS011;27814;53.452;-6.180;2022-08-11T15:24:33;1.92;;;0.57;;
41815;SDS011;27814;53.452;-6.180;2022-08-11T15:27:03;1.23;;;0.70;;
41815;SDS011;27814;53.452;-6.180;2022-08-11T15:29:53;1.15;;;0.50;;
41815;SDS011;27814;53.452;-6.180;2022-08-11T15:33:00;2.37;;;0.73;;
41815;SDS011;27814;53.452;-6.180;2022-08-11T15:35:51;0.90;;;0.57;;
41815;SDS011;27814;53.452;-6.180;2022-08-11T15:38:40;1.40;;;0.60;;
41815;SDS011;27814;53.452;-6.180;2022-08-11T15:41:21;0.88;;;0.50;;
41815;SDS011;27814;53.452;-6.180;2022-08-11T15:44:25;4.60;;;0.63;;
41815;SDS011;27814;53.452;-6.180;2022-08-11T15:47:32;0.80;;;0.50;;
41815;SDS011;27814;53.452;-6.180;2022-08-11T15:50:07;1.10;;;0.50;;
41815;SDS011;27814;53.452;-6.180;2022-08-11T15:52:44;1.43;;;0.50;;
41815;SDS011;27814;53.452;-6.180;2022-08-11T15:55:17;1.00;;;0.40;;
41815;SDS011;27814;53.452;-6.180;2022-08-11T15:57:48;1.20;;;0.60;;
41815;SDS011;27814;53.452;-6.180;2022-08-11T16:00:36;2.38;;;0.90;;
41815;SDS011;27814;53.452;-6.180;2022-08-11T16:03:32;1.90;;;0.67;;
41815;SDS011;27814;53.452;-6.180;2022-08-11T16:06:35;1.35;;;0.90;;
41815;SDS011;27814;53.452;-6.180;2022-08-11T16:09:17;2.15;;;1.15;;
41815;SDS011;27814;53.452;-6.180;2022-08-11T16:11:51;2.08;;;0.68;;
41815;SDS011;27814;53.452;-6.180;2022-08-11T16:14:21;1.48;;;0.93;;
41815;SDS011;27814;53.452;-6.180;2022-08-11T16:17:09;2.00;;;0.98;;
41815;SDS011;27814;53.452;-6.180;2022-08-11T16:19:43;0.90;;;0.50;;
41815;SDS011;27814;53.452;-6.180;2022-08-11T16:22:15;0.80;;;0.50;;
41815;SDS011;27814;53.452;-6.180;2022-08-11T16:24:55;1.35;;;0.60;;
41815;SDS011;27814;53.452;-6.180;2022-08-11T16:27:45;0.57;;;0.43;;
41815;SDS011;27814;53.452;-6.180;2022-08-11T16:30:16;1.80;;;0.45;;
41815;SDS011;27814;53.452;-6.180;2022-08-11T16:32:45;0.60;;;0.43;;
41815;SDS011;27814;53.452;-6.180;2022-08-11T16:35:19;0.93;;;0.40;;
41815;SDS011;27814;53.452;-6.180;2022-08-11T16:38:08;1.20;;;0.60;;
41815;SDS011;27814;53.452;-6.180;2022-08-11T16:41:02;1.37;;;0.60;;
41815;SDS011;27814;53.452;-6.180;2022-08-11T16:43:38;1.50;;;0.47;;
41815;SDS011;27814;53.452;-6.180;2022-08-11T16:46:27;1.13;;;0.68;;
41815;SDS011;27814;53.452;-6.180;2022-08-11T16:49:15;0.93;;;0.60;;
41815;SDS011;27814;53.452;-6.180;2022-08-11T16:51:45;0.77;;;0.45;;